Back to Top

Language: 

My Weather Underground Personal Weather Station Historical Data with Graphs...

Delerius Weather Station Historical Data
Daily Summary for January 17, 2018 Units:  Both    English   Metric
« Previous Day
Next Day »
Daily Weekly Monthly Yearly Custom
  High: Low: Average:
Temperature: 42.1 °F /  5.6 °C 33.8 °F /  1 °C 37.9 °F /  3.3 °C
Dew Point: 36.5 °F /  2.5 °C 31.5 °F /  -0.3 °C 34.8 °F /  1.6 °C
Humidity: 95 % 79 % 89 %
Wind Speed: 24.0 mph /  38.6 km/h - 11.9 mph /  19.2 km/h
Wind Gust: 37.0 mph /  59.5 km/h - -
Wind:- - WSW
Pressure: 29.62 in /  1002.9 hPa 29.18 in /  988 hPa -
Precipitation: 0.30 in /  7.62 mm    
Historical Graphs
 
 
Tabular Data for January 17, 2018
Time Temperature Dew Point Pressure Wind Wind Speed Wind Gust Humidity Rainfall Rate (Hourly) solar Conditions
00:30 34.3 °F /  1.3 °C 32.0 °F /  0 °C 29.24 in /  990.1 hPa West 9.0 mph /  14.5 km/h 15.0 mph /  24.1 km/h 91 % 0.00 in /  0 mm 0 W/m2
01:02 34.2 °F /  1.2 °C 31.5 °F /  -0.3 °C 29.24 in /  990.1 hPa WNW 14.0 mph /  22.5 km/h 22.0 mph /  35.4 km/h 90 % 0.00 in /  0 mm 0 W/m2
01:17 33.8 °F /  1 °C 31.7 °F /  -0.2 °C 29.24 in /  990.1 hPa West 12.0 mph /  19.3 km/h 22.0 mph /  35.4 km/h 92 % 0.00 in /  0 mm 0 W/m2
01:39 34.2 °F /  1.2 °C 32.1 °F /  0.1 °C 29.25 in /  990.4 hPa West 13.0 mph /  20.9 km/h 19.0 mph /  30.6 km/h 92 % 0.00 in /  0 mm 0 W/m2
02:37 34.5 °F /  1.4 °C 32.7 °F /  0.4 °C 29.27 in /  991.1 hPa West 20.0 mph /  32.2 km/h 35.0 mph /  56.3 km/h 93 % 0.01 in /  0.25 mm 0 W/m2
02:43 34.7 °F /  1.5 °C 32.9 °F /  0.5 °C 29.26 in /  990.7 hPa West 18.0 mph /  29 km/h 27.0 mph /  43.5 km/h 93 % 0.01 in /  0.25 mm 0 W/m2
02:49 34.5 °F /  1.4 °C 32.7 °F /  0.4 °C 29.27 in /  991.1 hPa West 15.0 mph /  24.1 km/h 24.0 mph /  38.6 km/h 93 % 0.01 in /  0.25 mm 0 W/m2
02:55 34.7 °F /  1.5 °C 32.9 °F /  0.5 °C 29.26 in /  990.7 hPa West 15.0 mph /  24.1 km/h 25.0 mph /  40.2 km/h 93 % 0.01 in /  0.25 mm 0 W/m2
03:16 35.6 °F /  2 °C 33.0 °F /  0.6 °C 29.26 in /  990.7 hPa West 20.0 mph /  32.2 km/h 30.0 mph /  48.3 km/h 90 % 0.01 in /  0.25 mm 0 W/m2
03:28 35.8 °F /  2.1 °C 33.1 °F /  0.6 °C 29.29 in /  991.8 hPa West 20.0 mph /  32.2 km/h 30.0 mph /  48.3 km/h 90 % 0.02 in /  0.51 mm 0 W/m2
03:33 35.4 °F /  1.9 °C 33.1 °F /  0.6 °C 29.30 in /  992.1 hPa WNW 21.0 mph /  33.8 km/h 30.0 mph /  48.3 km/h 91 % 0.02 in /  0.51 mm 0 W/m2
03:41 35.2 °F /  1.8 °C 33.1 °F /  0.6 °C 29.30 in /  992.1 hPa WNW 11.0 mph /  17.7 km/h 20.0 mph /  32.2 km/h 92 % 0.02 in /  0.51 mm 0 W/m2
03:47 35.2 °F /  1.8 °C 33.1 °F /  0.6 °C 29.31 in /  992.4 hPa West 14.0 mph /  22.5 km/h 22.0 mph /  35.4 km/h 92 % 0.02 in /  0.51 mm 0 W/m2
04:00 35.2 °F /  1.8 °C 33.4 °F /  0.8 °C 29.30 in /  992.1 hPa West 15.0 mph /  24.1 km/h 25.0 mph /  40.2 km/h 93 % 0.03 in /  0.76 mm 0 W/m2
04:09 35.4 °F /  1.9 °C 33.3 °F /  0.7 °C 29.30 in /  992.1 hPa WNW 17.0 mph /  27.4 km/h 25.0 mph /  40.2 km/h 92 % 0.04 in /  1.02 mm 0 W/m2
04:20 36.0 °F /  2.2 °C 33.6 °F /  0.9 °C 29.31 in /  992.4 hPa WNW 17.0 mph /  27.4 km/h 26.0 mph /  41.8 km/h 91 % 0.04 in /  1.02 mm 0 W/m2
04:21 36.0 °F /  2.2 °C 33.6 °F /  0.9 °C 29.32 in /  992.8 hPa WNW 15.0 mph /  24.1 km/h 21.0 mph /  33.8 km/h 91 % 0.04 in /  1.02 mm 0 W/m2
04:37 36.0 °F /  2.2 °C 33.3 °F /  0.7 °C 29.33 in /  993.1 hPa WNW 15.0 mph /  24.1 km/h 28.0 mph /  45.1 km/h 90 % 0.03 in /  0.76 mm 0 W/m2
04:46 36.1 °F /  2.3 °C 33.8 °F /  1 °C 29.33 in /  993.1 hPa WNW 17.0 mph /  27.4 km/h 30.0 mph /  48.3 km/h 91 % 0.02 in /  0.51 mm 0 W/m2
04:53 36.0 °F /  2.2 °C 33.6 °F /  0.9 °C 29.33 in /  993.1 hPa WNW 16.0 mph /  25.7 km/h 24.0 mph /  38.6 km/h 91 % 0.02 in /  0.51 mm 0 W/m2
05:02 36.1 °F /  2.3 °C 33.8 °F /  1 °C 29.34 in /  993.5 hPa WNW 17.0 mph /  27.4 km/h 26.0 mph /  41.8 km/h 91 % 0.02 in /  0.51 mm 0 W/m2
05:31 36.3 °F /  2.4 °C 33.9 °F /  1.1 °C 29.37 in /  994.5 hPa West 18.0 mph /  29 km/h 30.0 mph /  48.3 km/h 91 % 0.02 in /  0.51 mm 0 W/m2
05:48 36.3 °F /  2.4 °C 33.9 °F /  1.1 °C 29.38 in /  994.8 hPa West 16.0 mph /  25.7 km/h 30.0 mph /  48.3 km/h 91 % 0.02 in /  0.51 mm 0 W/m2
06:13 35.4 °F /  1.9 °C 33.3 °F /  0.7 °C 29.39 in /  995.1 hPa WNW 17.0 mph /  27.4 km/h 26.0 mph /  41.8 km/h 92 % 0.02 in /  0.51 mm 0 W/m2
06:36 36.1 °F /  2.3 °C 33.5 °F /  0.8 °C 29.42 in /  996.2 hPa WNW 16.0 mph /  25.7 km/h 26.0 mph /  41.8 km/h 90 % 0.03 in /  0.76 mm 0 W/m2
06:51 36.7 °F /  2.6 °C 34.0 °F /  1.1 °C 29.42 in /  996.2 hPa West 15.0 mph /  24.1 km/h 25.0 mph /  40.2 km/h 90 % 0.02 in /  0.51 mm 0 W/m2
07:07 37.2 °F /  2.9 °C 34.3 °F /  1.3 °C 29.43 in /  996.5 hPa WNW 22.0 mph /  35.4 km/h 31.0 mph /  49.9 km/h 89 % 0.02 in /  0.51 mm 0 W/m2
07:20 37.0 °F /  2.8 °C 34.4 °F /  1.3 °C 29.45 in /  997.2 hPa WNW 17.0 mph /  27.4 km/h 27.0 mph /  43.5 km/h 90 % 0.02 in /  0.51 mm 0 W/m2
07:28 37.2 °F /  2.9 °C 34.6 °F /  1.4 °C 29.45 in /  997.2 hPa WNW 18.0 mph /  29 km/h 30.0 mph /  48.3 km/h 90 % 0.02 in /  0.51 mm 0 W/m2
07:43 37.6 °F /  3.1 °C 34.6 °F /  1.4 °C 29.47 in /  997.9 hPa WNW 16.0 mph /  25.7 km/h 27.0 mph /  43.5 km/h 89 % 0.03 in /  0.76 mm 0 W/m2
08:03 37.9 °F /  3.3 °C 34.1 °F /  1.2 °C 29.48 in /  998.2 hPa West 20.0 mph /  32.2 km/h 32.0 mph /  51.5 km/h 86 % 0.03 in /  0.76 mm 0 W/m2
08:39 37.9 °F /  3.3 °C 34.4 °F /  1.3 °C 29.49 in /  998.5 hPa West 18.0 mph /  29 km/h 27.0 mph /  43.5 km/h 87 % 0.02 in /  0.51 mm 14 W/m2
08:49 38.1 °F /  3.4 °C 34.3 °F /  1.3 °C 29.49 in /  998.5 hPa West 18.0 mph /  29 km/h 27.0 mph /  43.5 km/h 86 % 0.02 in /  0.51 mm 30 W/m2
09:01 38.7 °F /  3.7 °C 34.2 °F /  1.2 °C 29.49 in /  998.5 hPa West 22.0 mph /  35.4 km/h 36.0 mph /  57.9 km/h 84 % 0.02 in /  0.51 mm 30 W/m2
09:10 39.0 °F /  3.9 °C 34.3 °F /  1.3 °C 29.50 in /  998.9 hPa West 22.0 mph /  35.4 km/h 32.0 mph /  51.5 km/h 83 % 0.02 in /  0.51 mm 37 W/m2
09:23 39.0 °F /  3.9 °C 34.6 °F /  1.4 °C 29.52 in /  999.5 hPa West 22.0 mph /  35.4 km/h 33.0 mph /  53.1 km/h 84 % 0.02 in /  0.51 mm 53 W/m2
09:28 39.2 °F /  4 °C 34.8 °F /  1.6 °C 29.52 in /  999.5 hPa West 24.0 mph /  38.6 km/h 37.0 mph /  59.5 km/h 84 % 0.02 in /  0.51 mm 70 W/m2
09:34 39.0 °F /  3.9 °C 34.6 °F /  1.4 °C 29.53 in /  999.9 hPa West 20.0 mph /  32.2 km/h 29.0 mph /  46.7 km/h 84 % 0.02 in /  0.51 mm 113 W/m2
09:39 39.0 °F /  3.9 °C 34.6 °F /  1.4 °C 29.53 in /  999.9 hPa West 19.0 mph /  30.6 km/h 35.0 mph /  56.3 km/h 84 % 0.02 in /  0.51 mm 74 W/m2
09:44 38.8 °F /  3.8 °C 34.7 °F /  1.5 °C 29.53 in /  999.9 hPa West 19.0 mph /  30.6 km/h 29.0 mph /  46.7 km/h 85 % 0.02 in /  0.51 mm 135 W/m2
09:54 39.4 °F /  4.1 °C 35.2 °F /  1.8 °C 29.54 in /  1000.2 hPa West 21.0 mph /  33.8 km/h 32.0 mph /  51.5 km/h 85 % 0.02 in /  0.51 mm 207 W/m2
09:59 39.7 °F /  4.3 °C 35.6 °F /  2 °C 29.55 in /  1000.6 hPa West 21.0 mph /  33.8 km/h 28.0 mph /  45.1 km/h 85 % 0.02 in /  0.51 mm 223 W/m2
10:08 40.3 °F /  4.6 °C 35.5 °F /  1.9 °C 29.56 in /  1000.9 hPa West 21.0 mph /  33.8 km/h 30.0 mph /  48.3 km/h 83 % 0.02 in /  0.51 mm 188 W/m2
10:15 40.5 °F /  4.7 °C 35.7 °F /  2.1 °C 29.56 in /  1000.9 hPa West 19.0 mph /  30.6 km/h 28.0 mph /  45.1 km/h 83 % 0.02 in /  0.51 mm 250 W/m2
10:27 40.6 °F /  4.8 °C 35.6 °F /  2 °C 29.57 in /  1001.2 hPa West 16.0 mph /  25.7 km/h 25.0 mph /  40.2 km/h 82 % 0.02 in /  0.51 mm 47 W/m2
10:35 40.5 °F /  4.7 °C 35.4 °F /  1.9 °C 29.57 in /  1001.2 hPa West 20.0 mph /  32.2 km/h 32.0 mph /  51.5 km/h 82 % 0.02 in /  0.51 mm 81 W/m2
10:42 40.8 °F /  4.9 °C 35.7 °F /  2.1 °C 29.57 in /  1001.2 hPa West 17.0 mph /  27.4 km/h 29.0 mph /  46.7 km/h 82 % 0.01 in /  0.25 mm 216 W/m2
10:48 40.8 °F /  4.9 °C 35.7 °F /  2.1 °C 29.57 in /  1001.2 hPa West 15.0 mph /  24.1 km/h 23.0 mph /  37 km/h 82 % 0.01 in /  0.25 mm 225 W/m2
11:15 41.2 °F /  5.1 °C 36.1 °F /  2.3 °C 29.59 in /  1001.9 hPa West 16.0 mph /  25.7 km/h 25.0 mph /  40.2 km/h 82 % 0.00 in /  0 mm 181 W/m2
11:41 41.9 °F /  5.5 °C 36.2 °F /  2.3 °C 29.59 in /  1001.9 hPa West 18.0 mph /  29 km/h 28.0 mph /  45.1 km/h 80 % 0.00 in /  0 mm 155 W/m2
11:49 41.4 °F /  5.2 °C 36.0 °F /  2.2 °C 29.59 in /  1001.9 hPa West 11.0 mph /  17.7 km/h 18.0 mph /  29 km/h 81 % 0.00 in /  0 mm 281 W/m2
12:06 41.5 °F /  5.3 °C 36.5 °F /  2.5 °C 29.59 in /  1001.9 hPa West 15.0 mph /  24.1 km/h 23.0 mph /  37 km/h 82 % 0.00 in /  0 mm 295 W/m2
12:14 41.9 °F /  5.5 °C 36.2 °F /  2.3 °C 29.59 in /  1001.9 hPa West 16.0 mph /  25.7 km/h 26.0 mph /  41.8 km/h 80 % 0.00 in /  0 mm 290 W/m2
12:32 42.1 °F /  5.6 °C 36.0 °F /  2.2 °C 29.60 in /  1002.3 hPa West 13.0 mph /  20.9 km/h 21.0 mph /  33.8 km/h 79 % 0.00 in /  0 mm 197 W/m2
12:40 41.4 °F /  5.2 °C 35.3 °F /  1.8 °C 29.60 in /  1002.3 hPa West 16.0 mph /  25.7 km/h 25.0 mph /  40.2 km/h 79 % 0.00 in /  0 mm 58 W/m2
12:45 41.2 °F /  5.1 °C 35.8 °F /  2.1 °C 29.61 in /  1002.6 hPa West 11.0 mph /  17.7 km/h 18.0 mph /  29 km/h 81 % 0.00 in /  0 mm 199 W/m2
12:51 41.2 °F /  5.1 °C 36.1 °F /  2.3 °C 29.60 in /  1002.3 hPa West 13.0 mph /  20.9 km/h 20.0 mph /  32.2 km/h 82 % 0.00 in /  0 mm 160 W/m2
13:02 41.2 °F /  5.1 °C 35.5 °F /  1.9 °C 29.60 in /  1002.3 hPa West 12.0 mph /  19.3 km/h 19.0 mph /  30.6 km/h 80 % 0.00 in /  0 mm 86 W/m2
13:09 41.2 °F /  5.1 °C 35.8 °F /  2.1 °C 29.61 in /  1002.6 hPa West 12.0 mph /  19.3 km/h 21.0 mph /  33.8 km/h 81 % 0.00 in /  0 mm 269 W/m2
13:22 40.8 °F /  4.9 °C 35.7 °F /  2.1 °C 29.62 in /  1002.9 hPa West 17.0 mph /  27.4 km/h 25.0 mph /  40.2 km/h 82 % 0.00 in /  0 mm 63 W/m2
13:30 40.5 °F /  4.7 °C 36.0 °F /  2.2 °C 29.61 in /  1002.6 hPa WNW 15.0 mph /  24.1 km/h 23.0 mph /  37 km/h 84 % 0.00 in /  0 mm 74 W/m2
13:37 40.1 °F /  4.5 °C 36.5 °F /  2.5 °C 29.61 in /  1002.6 hPa West 13.0 mph /  20.9 km/h 24.0 mph /  38.6 km/h 87 % 0.00 in /  0 mm 118 W/m2
13:59 39.6 °F /  4.2 °C 35.7 °F /  2.1 °C 29.61 in /  1002.6 hPa West 12.0 mph /  19.3 km/h 20.0 mph /  32.2 km/h 86 % 0.00 in /  0 mm 197 W/m2
14:05 39.7 °F /  4.3 °C 35.9 °F /  2.2 °C 29.61 in /  1002.6 hPa WSW 10.0 mph /  16.1 km/h 15.0 mph /  24.1 km/h 86 % 0.00 in /  0 mm 174 W/m2
14:10 39.9 °F /  4.4 °C 35.8 °F /  2.1 °C 29.61 in /  1002.6 hPa West 11.0 mph /  17.7 km/h 18.0 mph /  29 km/h 85 % 0.00 in /  0 mm 123 W/m2
14:23 39.9 °F /  4.4 °C 35.8 °F /  2.1 °C 29.61 in /  1002.6 hPa West 13.0 mph /  20.9 km/h 23.0 mph /  37 km/h 85 % 0.00 in /  0 mm 21 W/m2
14:45 39.9 °F /  4.4 °C 36.4 °F /  2.4 °C 29.61 in /  1002.6 hPa West 9.0 mph /  14.5 km/h 15.0 mph /  24.1 km/h 87 % 0.01 in /  0.25 mm 84 W/m2
14:50 39.9 °F /  4.4 °C 36.1 °F /  2.3 °C 29.61 in /  1002.6 hPa West 10.0 mph /  16.1 km/h 14.0 mph /  22.5 km/h 86 % 0.01 in /  0.25 mm 28 W/m2
14:56 39.7 °F /  4.3 °C 35.9 °F /  2.2 °C 29.61 in /  1002.6 hPa West 12.0 mph /  19.3 km/h 18.0 mph /  29 km/h 86 % 0.01 in /  0.25 mm 21 W/m2
15:03 39.7 °F /  4.3 °C 35.9 °F /  2.2 °C 29.61 in /  1002.6 hPa West 10.0 mph /  16.1 km/h 15.0 mph /  24.1 km/h 86 % 0.01 in /  0.25 mm 86 W/m2
15:34 39.2 °F /  4 °C 35.9 °F /  2.2 °C 29.62 in /  1002.9 hPa WSW 7.0 mph /  11.3 km/h 11.0 mph /  17.7 km/h 88 % 0.00 in /  0 mm 19 W/m2
15:42 39.0 °F /  3.9 °C 35.8 °F /  2.1 °C 29.62 in /  1002.9 hPa West 8.0 mph /  12.9 km/h 13.0 mph /  20.9 km/h 88 % 0.00 in /  0 mm 42 W/m2
15:51 39.2 °F /  4 °C 35.7 °F /  2.1 °C 29.61 in /  1002.6 hPa WSW 8.0 mph /  12.9 km/h 12.0 mph /  19.3 km/h 87 % 0.00 in /  0 mm 16 W/m2
15:58 39.4 °F /  4.1 °C 35.8 °F /  2.1 °C 29.61 in /  1002.6 hPa WSW 9.0 mph /  14.5 km/h 15.0 mph /  24.1 km/h 87 % 0.00 in /  0 mm 9 W/m2
16:04 39.6 °F /  4.2 °C 35.7 °F /  2.1 °C 29.61 in /  1002.6 hPa West 11.0 mph /  17.7 km/h 19.0 mph /  30.6 km/h 86 % 0.00 in /  0 mm 0 W/m2
16:25 39.4 °F /  4.1 °C 36.1 °F /  2.3 °C 29.62 in /  1002.9 hPa WSW 16.0 mph /  25.7 km/h 24.0 mph /  38.6 km/h 88 % 0.00 in /  0 mm 0 W/m2
16:37 38.8 °F /  3.8 °C 35.9 °F /  2.2 °C 29.62 in /  1002.9 hPa WSW 10.0 mph /  16.1 km/h 14.0 mph /  22.5 km/h 89 % 0.00 in /  0 mm 0 W/m2
16:50 38.8 °F /  3.8 °C 35.9 °F /  2.2 °C 29.61 in /  1002.6 hPa WSW 10.0 mph /  16.1 km/h 18.0 mph /  29 km/h 89 % 0.00 in /  0 mm 0 W/m2
16:56 38.8 °F /  3.8 °C 35.9 °F /  2.2 °C 29.62 in /  1002.9 hPa West 9.0 mph /  14.5 km/h 16.0 mph /  25.7 km/h 89 % 0.00 in /  0 mm 0 W/m2
17:05 38.8 °F /  3.8 °C 35.6 °F /  2 °C 29.62 in /  1002.9 hPa WSW 12.0 mph /  19.3 km/h 20.0 mph /  32.2 km/h 88 % 0.00 in /  0 mm 0 W/m2
17:11 39.0 °F /  3.9 °C 35.8 °F /  2.1 °C 29.61 in /  1002.6 hPa WSW 14.0 mph /  22.5 km/h 21.0 mph /  33.8 km/h 88 % 0.00 in /  0 mm 0 W/m2
17:26 38.7 °F /  3.7 °C 35.7 °F /  2.1 °C 29.61 in /  1002.6 hPa WSW 8.0 mph /  12.9 km/h 12.0 mph /  19.3 km/h 89 % 0.00 in /  0 mm 0 W/m2
17:32 38.7 °F /  3.7 °C 35.7 °F /  2.1 °C 29.61 in /  1002.6 hPa WSW 10.0 mph /  16.1 km/h 16.0 mph /  25.7 km/h 89 % 0.00 in /  0 mm 0 W/m2
17:38 38.7 °F /  3.7 °C 35.7 °F /  2.1 °C 29.60 in /  1002.3 hPa WSW 8.0 mph /  12.9 km/h 12.0 mph /  19.3 km/h 89 % 0.00 in /  0 mm 0 W/m2
17:44 38.5 °F /  3.6 °C 35.5 °F /  1.9 °C 29.60 in /  1002.3 hPa WSW 7.0 mph /  11.3 km/h 10.0 mph /  16.1 km/h 89 % 0.01 in /  0.25 mm 0 W/m2
17:55 38.5 °F /  3.6 °C 35.5 °F /  1.9 °C 29.60 in /  1002.3 hPa WSW 11.0 mph /  17.7 km/h 18.0 mph /  29 km/h 89 % 0.01 in /  0.25 mm 0 W/m2
18:13 38.8 °F /  3.8 °C 35.6 °F /  2 °C 29.60 in /  1002.3 hPa WSW 9.0 mph /  14.5 km/h 13.0 mph /  20.9 km/h 88 % 0.01 in /  0.25 mm 0 W/m2
18:21 39.0 °F /  3.9 °C 35.5 °F /  1.9 °C 29.59 in /  1001.9 hPa WSW 11.0 mph /  17.7 km/h 21.0 mph /  33.8 km/h 87 % 0.01 in /  0.25 mm 0 W/m2
18:28 39.4 °F /  4.1 °C 35.5 °F /  1.9 °C 29.59 in /  1001.9 hPa SW 10.0 mph /  16.1 km/h 15.0 mph /  24.1 km/h 86 % 0.01 in /  0.25 mm 0 W/m2
18:40 39.6 °F /  4.2 °C 35.1 °F /  1.7 °C 29.59 in /  1001.9 hPa WSW 15.0 mph /  24.1 km/h 22.0 mph /  35.4 km/h 84 % 0.01 in /  0.25 mm 0 W/m2
18:46 39.7 °F /  4.3 °C 35.3 °F /  1.8 °C 29.59 in /  1001.9 hPa WSW 13.0 mph /  20.9 km/h 20.0 mph /  32.2 km/h 84 % 0.00 in /  0 mm 0 W/m2
19:02 39.4 °F /  4.1 °C 35.2 °F /  1.8 °C 29.58 in /  1001.6 hPa WSW 8.0 mph /  12.9 km/h 14.0 mph /  22.5 km/h 85 % 0.00 in /  0 mm 0 W/m2
19:07 39.0 °F /  3.9 °C 35.2 °F /  1.8 °C 29.57 in /  1001.2 hPa WSW 6.0 mph /  9.7 km/h 13.0 mph /  20.9 km/h 86 % 0.00 in /  0 mm 0 W/m2
19:38 39.6 °F /  4.2 °C 35.1 °F /  1.7 °C 29.56 in /  1000.9 hPa WSW 7.0 mph /  11.3 km/h 11.0 mph /  17.7 km/h 84 % 0.00 in /  0 mm 0 W/m2
19:43 39.6 °F /  4.2 °C 35.1 °F /  1.7 °C 29.56 in /  1000.9 hPa SW 10.0 mph /  16.1 km/h 14.0 mph /  22.5 km/h 84 % 0.00 in /  0 mm 0 W/m2
19:48 39.6 °F /  4.2 °C 35.1 °F /  1.7 °C 29.55 in /  1000.6 hPa WSW 11.0 mph /  17.7 km/h 19.0 mph /  30.6 km/h 84 % 0.00 in /  0 mm 0 W/m2
19:53 39.6 °F /  4.2 °C 35.1 °F /  1.7 °C 29.56 in /  1000.9 hPa SW 11.0 mph /  17.7 km/h 16.0 mph /  25.7 km/h 84 % 0.00 in /  0 mm 0 W/m2
19:58 39.6 °F /  4.2 °C 35.4 °F /  1.9 °C 29.55 in /  1000.6 hPa SW 9.0 mph /  14.5 km/h 12.0 mph /  19.3 km/h 85 % 0.00 in /  0 mm 0 W/m2
20:03 39.4 °F /  4.1 °C 35.2 °F /  1.8 °C 29.55 in /  1000.6 hPa WSW 10.0 mph /  16.1 km/h 16.0 mph /  25.7 km/h 85 % 0.00 in /  0 mm 0 W/m2
20:08 39.4 °F /  4.1 °C 35.2 °F /  1.8 °C 29.54 in /  1000.2 hPa SW 11.0 mph /  17.7 km/h 16.0 mph /  25.7 km/h 85 % 0.00 in /  0 mm 0 W/m2
20:13 39.2 °F /  4 °C 35.4 °F /  1.9 °C 29.54 in /  1000.2 hPa WSW 9.0 mph /  14.5 km/h 14.0 mph /  22.5 km/h 86 % 0.00 in /  0 mm 0 W/m2
20:18 39.0 °F /  3.9 °C 35.2 °F /  1.8 °C 29.53 in /  999.9 hPa SW 10.0 mph /  16.1 km/h 15.0 mph /  24.1 km/h 86 % 0.00 in /  0 mm 0 W/m2
20:23 39.0 °F /  3.9 °C 35.5 °F /  1.9 °C 29.53 in /  999.9 hPa SW 12.0 mph /  19.3 km/h 19.0 mph /  30.6 km/h 87 % 0.00 in /  0 mm 0 W/m2
20:29 38.8 °F /  3.8 °C 35.3 °F /  1.8 °C 29.52 in /  999.5 hPa SW 9.0 mph /  14.5 km/h 12.0 mph /  19.3 km/h 87 % 0.00 in /  0 mm 0 W/m2
20:35 38.7 °F /  3.7 °C 35.4 °F /  1.9 °C 29.52 in /  999.5 hPa SW 9.0 mph /  14.5 km/h 13.0 mph /  20.9 km/h 88 % 0.00 in /  0 mm 0 W/m2
20:37 38.7 °F /  3.7 °C 35.4 °F /  1.9 °C 29.52 in /  999.5 hPa SW 10.0 mph /  16.1 km/h 13.0 mph /  20.9 km/h 88 % 0.00 in /  0 mm 0 W/m2
20:41 38.5 °F /  3.6 °C 35.5 °F /  1.9 °C 29.52 in /  999.5 hPa SW 9.0 mph /  14.5 km/h 15.0 mph /  24.1 km/h 89 % 0.00 in /  0 mm 0 W/m2
20:44 38.5 °F /  3.6 °C 35.5 °F /  1.9 °C 29.51 in /  999.2 hPa SW 10.0 mph /  16.1 km/h 14.0 mph /  22.5 km/h 89 % 0.00 in /  0 mm 0 W/m2
20:46 38.3 °F /  3.5 °C 35.3 °F /  1.8 °C 29.51 in /  999.2 hPa SW 9.0 mph /  14.5 km/h 14.0 mph /  22.5 km/h 89 % 0.00 in /  0 mm 0 W/m2
20:51 38.1 °F /  3.4 °C 35.4 °F /  1.9 °C 29.50 in /  998.9 hPa SW 10.0 mph /  16.1 km/h 16.0 mph /  25.7 km/h 90 % 0.00 in /  0 mm 0 W/m2
20:56 37.9 °F /  3.3 °C 35.3 °F /  1.8 °C 29.50 in /  998.9 hPa SW 7.0 mph /  11.3 km/h 12.0 mph /  19.3 km/h 90 % 0.00 in /  0 mm 0 W/m2
21:01 37.9 °F /  3.3 °C 35.3 °F /  1.8 °C 29.50 in /  998.9 hPa SW 7.0 mph /  11.3 km/h 11.0 mph /  17.7 km/h 90 % 0.00 in /  0 mm 0 W/m2
21:05 37.9 °F /  3.3 °C 35.3 °F /  1.8 °C 29.50 in /  998.9 hPa SW 7.0 mph /  11.3 km/h 11.0 mph /  17.7 km/h 90 % 0.00 in /  0 mm 0 W/m2
21:10 37.8 °F /  3.2 °C 35.4 °F /  1.9 °C 29.49 in /  998.5 hPa SW 6.0 mph /  9.7 km/h 9.0 mph /  14.5 km/h 91 % 0.00 in /  0 mm 0 W/m2
21:12 37.8 °F /  3.2 °C 35.4 °F /  1.9 °C 29.49 in /  998.5 hPa SSW 5.0 mph /  8 km/h 8.0 mph /  12.9 km/h 91 % 0.00 in /  0 mm 0 W/m2
21:17 37.8 °F /  3.2 °C 35.4 °F /  1.9 °C 29.48 in /  998.2 hPa SSW 7.0 mph /  11.3 km/h 11.0 mph /  17.7 km/h 91 % 0.00 in /  0 mm 0 W/m2
21:19 37.8 °F /  3.2 °C 35.4 °F /  1.9 °C 29.48 in /  998.2 hPa SSW 5.0 mph /  8 km/h 9.0 mph /  14.5 km/h 91 % 0.00 in /  0 mm 0 W/m2
21:20 37.8 °F /  3.2 °C 35.4 °F /  1.9 °C 29.48 in /  998.2 hPa SSW 6.0 mph /  9.7 km/h 9.0 mph /  14.5 km/h 91 % 0.00 in /  0 mm 0 W/m2
21:21 37.8 °F /  3.2 °C 35.4 °F /  1.9 °C 29.48 in /  998.2 hPa SSW 6.0 mph /  9.7 km/h 7.0 mph /  11.3 km/h 91 % 0.00 in /  0 mm 0 W/m2
21:25 37.6 °F /  3.1 °C 35.2 °F /  1.8 °C 29.48 in /  998.2 hPa SSW 5.0 mph /  8 km/h 8.0 mph /  12.9 km/h 91 % 0.00 in /  0 mm 0 W/m2
21:26 37.6 °F /  3.1 °C 35.2 °F /  1.8 °C 29.48 in /  998.2 hPa SSW 5.0 mph /  8 km/h 8.0 mph /  12.9 km/h 91 % 0.00 in /  0 mm 0 W/m2
21:27 37.6 °F /  3.1 °C 35.2 °F /  1.8 °C 29.48 in /  998.2 hPa SSW 4.0 mph /  6.4 km/h 8.0 mph /  12.9 km/h 91 % 0.00 in /  0 mm 0 W/m2
21:32 37.6 °F /  3.1 °C 35.5 °F /  1.9 °C 29.47 in /  997.9 hPa SSW 7.0 mph /  11.3 km/h 11.0 mph /  17.7 km/h 92 % 0.00 in /  0 mm 0 W/m2
21:34 37.6 °F /  3.1 °C 35.5 °F /  1.9 °C 29.47 in /  997.9 hPa SSW 5.0 mph /  8 km/h 11.0 mph /  17.7 km/h 92 % 0.00 in /  0 mm 0 W/m2
21:39 37.6 °F /  3.1 °C 35.5 °F /  1.9 °C 29.46 in /  997.5 hPa SSW 5.0 mph /  8 km/h 9.0 mph /  14.5 km/h 92 % 0.01 in /  0.25 mm 0 W/m2
21:45 37.4 °F /  3 °C 35.3 °F /  1.8 °C 29.45 in /  997.2 hPa SSW 4.0 mph /  6.4 km/h 8.0 mph /  12.9 km/h 92 % 0.01 in /  0.25 mm 0 W/m2
21:48 37.4 °F /  3 °C 35.3 °F /  1.8 °C 29.44 in /  996.8 hPa SSW 7.0 mph /  11.3 km/h 13.0 mph /  20.9 km/h 92 % 0.01 in /  0.25 mm 0 W/m2
21:50 37.4 °F /  3 °C 35.3 °F /  1.8 °C 29.44 in /  996.8 hPa SSW 6.0 mph /  9.7 km/h 13.0 mph /  20.9 km/h 92 % 0.01 in /  0.25 mm 0 W/m2
21:55 37.4 °F /  3 °C 35.3 °F /  1.8 °C 29.44 in /  996.8 hPa South 5.0 mph /  8 km/h 8.0 mph /  12.9 km/h 92 % 0.01 in /  0.25 mm 0 W/m2
22:00 37.4 °F /  3 °C 35.3 °F /  1.8 °C 29.42 in /  996.2 hPa South 3.0 mph /  4.8 km/h 7.0 mph /  11.3 km/h 92 % 0.01 in /  0.25 mm 0 W/m2
22:05 37.2 °F /  2.9 °C 35.1 °F /  1.7 °C 29.42 in /  996.2 hPa South 5.0 mph /  8 km/h 8.0 mph /  12.9 km/h 92 % 0.01 in /  0.25 mm 0 W/m2
22:10 37.2 °F /  2.9 °C 35.1 °F /  1.7 °C 29.41 in /  995.8 hPa SSE 6.0 mph /  9.7 km/h 11.0 mph /  17.7 km/h 92 % 0.02 in /  0.51 mm 0 W/m2
22:15 37.0 °F /  2.8 °C 34.9 °F /  1.6 °C 29.40 in /  995.5 hPa South 7.0 mph /  11.3 km/h 10.0 mph /  16.1 km/h 92 % 0.02 in /  0.51 mm 0 W/m2
22:20 37.0 °F /  2.8 °C 35.2 °F /  1.8 °C 29.38 in /  994.8 hPa SSE 8.0 mph /  12.9 km/h 12.0 mph /  19.3 km/h 93 % 0.02 in /  0.51 mm 0 W/m2
22:25 36.7 °F /  2.6 °C 34.8 °F /  1.6 °C 29.37 in /  994.5 hPa South 10.0 mph /  16.1 km/h 19.0 mph /  30.6 km/h 93 % 0.02 in /  0.51 mm 0 W/m2
22:30 36.3 °F /  2.4 °C 34.5 °F /  1.4 °C 29.36 in /  994.1 hPa SSE 9.0 mph /  14.5 km/h 15.0 mph /  24.1 km/h 93 % 0.03 in /  0.76 mm 0 W/m2
22:35 36.1 °F /  2.3 °C 34.3 °F /  1.3 °C 29.35 in /  993.8 hPa SSE 9.0 mph /  14.5 km/h 16.0 mph /  25.7 km/h 93 % 0.03 in /  0.76 mm 0 W/m2
22:40 36.0 °F /  2.2 °C 34.1 °F /  1.2 °C 29.33 in /  993.1 hPa SSE 10.0 mph /  16.1 km/h 19.0 mph /  30.6 km/h 93 % 0.03 in /  0.76 mm 0 W/m2
22:45 36.0 °F /  2.2 °C 34.1 °F /  1.2 °C 29.33 in /  993.1 hPa South 10.0 mph /  16.1 km/h 20.0 mph /  32.2 km/h 93 % 0.04 in /  1.02 mm 0 W/m2
22:50 35.8 °F /  2.1 °C 34.2 °F /  1.2 °C 29.32 in /  992.8 hPa SSE 7.0 mph /  11.3 km/h 12.0 mph /  19.3 km/h 94 % 0.05 in /  1.27 mm 0 W/m2
22:55 35.4 °F /  1.9 °C 33.9 °F /  1.1 °C 29.31 in /  992.4 hPa SSE 10.0 mph /  16.1 km/h 16.0 mph /  25.7 km/h 94 % 0.06 in /  1.52 mm 0 W/m2
23:00 35.2 °F /  1.8 °C 33.7 °F /  0.9 °C 29.30 in /  992.1 hPa SSE 9.0 mph /  14.5 km/h 15.0 mph /  24.1 km/h 94 % 0.06 in /  1.52 mm 0 W/m2
23:05 35.1 °F /  1.7 °C 33.5 °F /  0.8 °C 29.29 in /  991.8 hPa SSE 10.0 mph /  16.1 km/h 16.0 mph /  25.7 km/h 94 % 0.06 in /  1.52 mm 0 W/m2
23:10 34.9 °F /  1.6 °C 33.3 °F /  0.7 °C 29.28 in /  991.4 hPa SSE 8.0 mph /  12.9 km/h 12.0 mph /  19.3 km/h 94 % 0.06 in /  1.52 mm 0 W/m2
23:15 34.7 °F /  1.5 °C 33.2 °F /  0.7 °C 29.27 in /  991.1 hPa SSE 9.0 mph /  14.5 km/h 14.0 mph /  22.5 km/h 94 % 0.06 in /  1.52 mm 0 W/m2
23:20 34.7 °F /  1.5 °C 33.2 °F /  0.7 °C 29.26 in /  990.7 hPa SSE 10.0 mph /  16.1 km/h 15.0 mph /  24.1 km/h 94 % 0.06 in /  1.52 mm 0 W/m2
23:25 34.5 °F /  1.4 °C 33.0 °F /  0.6 °C 29.25 in /  990.4 hPa SSE 8.0 mph /  12.9 km/h 13.0 mph /  20.9 km/h 94 % 0.06 in /  1.52 mm 0 W/m2
23:30 34.5 °F /  1.4 °C 33.2 °F /  0.7 °C 29.24 in /  990.1 hPa SSE 9.0 mph /  14.5 km/h 13.0 mph /  20.9 km/h 95 % 0.06 in /  1.52 mm 0 W/m2
23:35 34.7 °F /  1.5 °C 33.4 °F /  0.8 °C 29.23 in /  989.7 hPa SE 10.0 mph /  16.1 km/h 15.0 mph /  24.1 km/h 95 % 0.06 in /  1.52 mm 0 W/m2
23:40 34.5 °F /  1.4 °C 33.2 °F /  0.7 °C 29.22 in /  989.4 hPa SSE 9.0 mph /  14.5 km/h 15.0 mph /  24.1 km/h 95 % 0.06 in /  1.52 mm 0 W/m2
23:45 34.5 °F /  1.4 °C 33.2 °F /  0.7 °C 29.21 in /  989.1 hPa SSE 8.0 mph /  12.9 km/h 13.0 mph /  20.9 km/h 95 % 0.05 in /  1.27 mm 0 W/m2
23:47 34.5 °F /  1.4 °C 33.2 °F /  0.7 °C 29.20 in /  988.7 hPa SSE 8.0 mph /  12.9 km/h 13.0 mph /  20.9 km/h 95 % 0.05 in /  1.27 mm 0 W/m2
23:52 34.5 °F /  1.4 °C 33.2 °F /  0.7 °C 29.20 in /  988.7 hPa SSE 8.0 mph /  12.9 km/h 15.0 mph /  24.1 km/h 95 % 0.05 in /  1.27 mm 0 W/m2
23:57 34.9 °F /  1.6 °C 33.6 °F /  0.9 °C 29.18 in /  988 hPa SSE 7.0 mph /  11.3 km/h 13.0 mph /  20.9 km/h 95 % 0.04 in /  1.02 mm 0 W/m2
Delerius-Weather
Compliments of Weather Underground - 1.5 mb

Data updates at regular intervals.